Time;durP1;ratioP1;P1;durP2;ratioP2;P2;SDS_P1;SDS_P2;PMS_P1;PMS_P2;Temp;Humidity;BMP_temperature;BMP_pressure;BME280_temperature;BME280_humidity;BME280_pressure;Samples;Min_cycle;Max_cycle;Signal;HPM_P1;HPM_P2
2022/09/19 00:01:18;;;;;;;0.22;0.20;;;10.70;99.90;;;;;;5093814;28;20024;-80
2022/09/19 00:03:46;;;;;;;0.70;0.40;;;10.70;99.90;;;;;;5094705;28;20085;-80
2022/09/19 00:06:15;;;;;;;0.30;0.30;;;10.70;99.90;;;;;;5093605;28;20024;-80
2022/09/19 00:08:43;;;;;;;0.47;0.20;;;10.60;99.90;;;;;;5093346;28;20111;-80
2022/09/19 00:11:10;;;;;;;0.75;0.38;;;10.60;99.90;;;;;;5094884;28;20459;-80
2022/09/19 00:13:39;;;;;;;0.57;0.40;;;10.60;99.90;;;;;;5093850;28;20480;-81
2022/09/19 00:16:05;;;;;;;0.50;0.28;;;10.60;99.90;;;;;;5093443;28;20030;-81
2022/09/19 00:18:31;;;;;;;0.45;0.30;;;10.50;99.90;;;;;;5094426;28;20044;-80
2022/09/19 00:20:57;;;;;;;0.82;0.82;;;10.60;99.90;;;;;;5093654;28;20513;-81
2022/09/19 00:26:10;;;;;;;0.63;0.30;;;10.50;99.90;;;;;;5093605;28;20043;-80
2022/09/19 00:28:37;;;;;;;0.10;0.10;;;10.50;99.90;;;;;;5092891;28;20069;-81
2022/09/19 00:31:04;;;;;;;1.17;0.22;;;10.50;99.90;;;;;;5093215;28;20085;-80
2022/09/19 00:33:32;;;;;;;0.57;0.30;;;10.40;99.90;;;;;;5094737;28;20024;-80
2022/09/19 00:36:03;;;;;;;0.20;0.20;;;10.40;99.90;;;;;;5094241;28;20024;-80
2022/09/19 00:38:30;;;;;;;0.40;0.30;;;10.40;99.90;;;;;;5093103;28;20028;-81
2022/09/19 00:40:57;;;;;;;0.45;0.28;;;10.40;99.90;;;;;;5093240;28;20028;-82
2022/09/19 00:43:25;;;;;;;0.10;0.10;;;10.30;99.90;;;;;;5092982;28;20021;-81
2022/09/19 00:45:52;;;;;;;3.08;0.20;;;10.30;99.90;;;;;;5092766;28;20111;-79
2022/09/19 00:48:22;;;;;;;2.53;0.20;;;10.30;99.90;;;;;;5093625;28;20027;-81
2022/09/19 00:50:52;;;;;;;1.10;0.20;;;10.30;99.90;;;;;;5092799;28;20096;-80
2022/09/19 00:53:22;;;;;;;0.20;0.20;;;10.30;99.90;;;;;;5092610;28;20386;-79
2022/09/19 00:55:53;;;;;;;0.30;0.20;;;10.30;99.90;;;;;;5092758;28;20027;-80
2022/09/19 00:58:34;;;;;;;0.43;0.32;;;10.40;99.90;;;;;;5093600;28;20024;-80
2022/09/19 01:01:01;;;;;;;0.47;0.40;;;10.40;99.90;;;;;;5092670;28;20027;-82
2022/09/19 01:03:28;;;;;;;0.05;0.05;;;10.40;99.90;;;;;;5092360;28;20128;-81
2022/09/19 01:06:09;;;;;;;0.60;0.20;;;10.40;99.90;;;;;;5092448;28;20027;-81
2022/09/19 01:09:13;;;;;;;0.40;0.35;;;10.40;99.90;;;;;;5092493;28;20038;-80
2022/09/19 01:11:57;;;;;;;0.50;0.40;;;10.50;99.90;;;;;;5093248;28;20039;-80
2022/09/19 01:14:53;;;;;;;0.98;0.30;;;10.50;99.90;;;;;;5092314;28;20024;-79
2022/09/19 01:17:28;;;;;;;0.98;0.30;;;10.50;99.90;;;;;;5092473;28;20459;-81
2022/09/19 01:20:19;;;;;;;0.25;0.10;;;10.60;99.90;;;;;;5091983;28;20044;-81
2022/09/19 01:23:05;;;;;;;0.75;0.43;;;10.70;99.90;;;;;;5091921;28;20032;-80
2022/09/19 01:25:46;;;;;;;0.25;0.25;;;10.80;99.90;;;;;;5092002;28;20052;-79
2022/09/19 01:28:24;;;;;;;0.50;0.28;;;10.90;99.90;;;;;;5092007;28;20027;-81
2022/09/19 01:31:19;;;;;;;0.68;0.28;;;11.00;99.90;;;;;;5091812;28;20031;-80
2022/09/19 01:33:54;;;;;;;0.55;0.30;;;11.00;99.90;;;;;;5092257;28;20028;-81
2022/09/19 01:36:26;;;;;;;0.30;0.30;;;11.00;99.90;;;;;;5093117;28;20051;-81
2022/09/19 01:38:53;;;;;;;0.28;0.28;;;11.00;99.90;;;;;;5091584;28;20110;-81
2022/09/19 01:41:21;;;;;;;0.35;0.32;;;11.10;99.90;;;;;;5091713;28;20376;-80
2022/09/19 01:43:48;;;;;;;0.50;0.20;;;11.10;99.90;;;;;;5091828;28;20039;-80
2022/09/19 01:46:42;;;;;;;0.28;0.20;;;11.10;99.90;;;;;;5091541;28;20024;-79
2022/09/19 01:49:35;;;;;;;0.20;0.20;;;11.20;99.90;;;;;;5092319;28;20492;-80
2022/09/19 01:52:24;;;;;;;0.13;0.13;;;11.20;99.90;;;;;;5091470;28;20026;-80
2022/09/19 01:55:02;;;;;;;0.65;0.30;;;11.10;99.90;;;;;;5091587;28;20486;-80
2022/09/19 01:57:51;;;;;;;0.20;0.20;;;11.10;99.90;;;;;;5091588;28;20028;-80
2022/09/19 02:00:22;;;;;;;0.17;0.17;;;11.00;99.90;;;;;;5091287;28;20115;-81
2022/09/19 02:02:53;;;;;;;1.38;0.68;;;10.90;99.90;;;;;;5092785;28;20024;-81
2022/09/19 02:05:51;;;;;;;2.97;0.20;;;10.90;99.90;;;;;;5091281;28;20047;-80
2022/09/19 02:08:29;;;;;;;0.30;0.22;;;10.90;99.90;;;;;;5091260;28;20136;-80
2022/09/19 02:11:09;;;;;;;0.22;0.22;;;11.00;99.90;;;;;;5092584;28;20483;-81
2022/09/19 02:13:38;;;;;;;0.20;0.20;;;11.10;99.90;;;;;;5092018;28;20040;-80
2022/09/19 02:16:18;;;;;;;0.93;0.20;;;11.10;99.90;;;;;;5091559;28;20027;-81
2022/09/19 02:18:54;;;;;;;0.52;0.10;;;11.20;99.90;;;;;;5090924;28;20044;-79
2022/09/19 02:21:30;;;;;;;;;;;11.30;99.90;;;;;;5092028;28;20482;-79
2022/09/19 02:24:05;;;;;;;0.10;0.10;;;11.30;99.90;;;;;;5091109;28;19912;-79
2022/09/19 02:26:33;;;;;;;0.30;0.20;;;11.30;99.90;;;;;;5091490;28;20035;-81
2022/09/19 02:29:01;;;;;;;0.50;0.22;;;11.30;99.90;;;;;;5092425;28;20023;-79
2022/09/19 02:31:27;;;;;;;0.20;0.20;;;11.40;99.90;;;;;;5091273;28;20031;-79
2022/09/19 02:33:58;;;;;;;3.10;0.20;;;11.40;99.90;;;;;;5091537;28;20067;-79
2022/09/19 02:36:31;;;;;;;0.30;0.30;;;11.40;99.90;;;;;;5092533;28;20024;-81
2022/09/19 02:39:00;;;;;;;0.30;0.30;;;11.30;99.90;;;;;;5092204;28;20028;-80
2022/09/19 02:41:36;;;;;;;0.40;0.30;;;11.30;99.90;;;;;;5092260;28;20027;-81
2022/09/19 02:44:19;;;;;;;2.03;0.40;;;11.20;99.90;;;;;;5091055;28;20044;-81
2022/09/19 02:46:51;;;;;;;2.15;0.47;;;11.20;99.90;;;;;;5090709;28;20020;-80
2022/09/19 02:49:25;;;;;;;0.15;0.10;;;11.20;99.90;;;;;;5092121;28;20085;-80
2022/09/19 02:51:54;;;;;;;0.57;0.40;;;11.10;99.90;;;;;;5095005;28;20020;-80
2022/09/19 02:54:30;;;;;;;0.30;0.30;;;11.10;99.90;;;;;;5094986;28;20468;-81
2022/09/19 02:56:59;;;;;;;0.20;0.20;;;11.10;99.90;;;;;;5095974;28;20024;-79
2022/09/19 02:59:33;;;;;;;0.77;0.40;;;11.10;99.90;;;;;;5096146;28;20467;-80
2022/09/19 03:02:08;;;;;;;0.80;0.40;;;11.00;99.90;;;;;;5094819;28;20030;-80
2022/09/19 03:04:42;;;;;;;0.30;0.30;;;10.90;99.90;;;;;;5096214;28;20540;-81
2022/09/19 03:07:27;;;;;;;0.32;0.32;;;10.80;99.90;;;;;;5096011;28;20027;-80
2022/09/19 03:10:24;;;;;;;0.50;0.50;;;10.80;99.90;;;;;;5094709;28;20024;-80
2022/09/19 03:12:57;;;;;;;0.32;0.17;;;10.80;99.90;;;;;;5094795;28;20085;-80
2022/09/19 03:15:49;;;;;;;0.82;0.30;;;10.80;99.90;;;;;;5094535;28;20028;-79
2022/09/19 03:18:18;;;;;;;1.30;0.47;;;10.80;99.90;;;;;;5094065;28;20040;-81
2022/09/19 03:20:55;;;;;;;0.55;0.20;;;10.80;99.90;;;;;;5094322;28;20077;-81
2022/09/19 03:23:27;;;;;;;0.10;0.10;;;10.80;99.90;;;;;;5094269;28;20028;-80
2022/09/19 03:25:52;;;;;;;0.70;0.30;;;10.80;99.90;;;;;;5095818;28;20031;-81
2022/09/19 03:28:20;;;;;;;0.15;0.15;;;10.70;99.90;;;;;;5094651;28;20028;-80
2022/09/19 03:30:46;;;;;;;0.30;0.20;;;10.70;99.90;;;;;;5094491;28;20029;-79
2022/09/19 03:33:15;;;;;;;0.43;0.20;;;10.70;99.90;;;;;;5095666;28;20446;-80
2022/09/19 03:35:42;;;;;;;0.30;0.20;;;10.70;99.90;;;;;;5094106;28;20024;-79
2022/09/19 03:38:08;;;;;;;0.20;0.20;;;10.70;99.90;;;;;;5095330;28;20099;-80
2022/09/19 03:40:34;;;;;;;0.57;0.20;;;10.60;99.90;;;;;;5093901;28;20024;-79
2022/09/19 03:43:00;;;;;;;0.30;0.20;;;10.70;99.90;;;;;;5095146;28;20024;-79
2022/09/19 03:45:26;;;;;;;0.30;0.30;;;10.70;99.90;;;;;;5093282;28;20499;-80
2022/09/19 03:47:52;;;;;;;6.28;0.40;;;10.60;99.90;;;;;;5093396;28;20024;-81
2022/09/19 03:50:17;;;;;;;1.75;0.50;;;10.60;99.90;;;;;;5093314;28;20016;-80
2022/09/19 03:52:47;;;;;;;3.92;0.47;;;10.60;99.90;;;;;;5093557;28;20023;-81
2022/09/19 03:55:13;;;;;;;1.17;0.20;;;10.60;99.90;;;;;;5093392;28;20016;-80
2022/09/19 03:57:39;;;;;;;0.47;0.20;;;10.60;99.90;;;;;;5093547;28;20490;-79
2022/09/19 04:00:06;;;;;;;0.40;0.30;;;10.60;99.90;;;;;;5093100;28;20132;-80
2022/09/19 04:02:32;;;;;;;4.38;0.38;;;10.60;99.90;;;;;;5092374;28;20004;-81
2022/09/19 04:04:58;;;;;;;0.20;0.20;;;10.60;99.90;;;;;;5094981;28;20475;-81
2022/09/19 04:07:27;;;;;;;2.83;0.50;;;10.60;99.90;;;;;;5093912;28;20020;-81
2022/09/19 04:09:54;;;;;;;1.13;0.90;;;10.50;99.90;;;;;;5093507;28;20020;-81
2022/09/19 04:12:20;;;;;;;0.52;0.52;;;10.50;99.90;;;;;;5095101;28;20016;-81
2022/09/19 04:14:46;;;;;;;4.53;0.52;;;10.50;99.90;;;;;;5093539;28;20383;-79
2022/09/19 04:17:13;;;;;;;0.50;0.50;;;10.40;99.90;;;;;;5094522;28;20024;-79
2022/09/19 04:19:40;;;;;;;0.38;0.25;;;10.30;99.90;;;;;;5093188;28;20052;-79
2022/09/19 04:22:05;;;;;;;0.90;0.73;;;10.30;99.90;;;;;;5093082;28;20116;-80
2022/09/19 04:24:31;;;;;;;0.50;0.50;;;10.20;99.90;;;;;;5094617;28;20115;-78
2022/09/19 04:26:59;;;;;;;0.65;0.40;;;10.10;99.90;;;;;;5093341;28;20028;-80
2022/09/19 04:29:27;;;;;;;0.40;0.40;;;10.00;99.90;;;;;;5093090;28;20081;-79
2022/09/19 04:31:53;;;;;;;0.10;0.10;;;10.00;99.90;;;;;;5093263;28;20052;-81
2022/09/19 04:34:19;;;;;;;0.77;0.40;;;10.00;99.90;;;;;;5093379;28;20067;-80
2022/09/19 04:36:48;;;;;;;1.23;0.45;;;9.90;99.90;;;;;;5093296;28;20031;-81
2022/09/19 04:39:14;;;;;;;0.60;0.45;;;9.90;99.90;;;;;;5092976;28;20035;-83
2022/09/19 04:41:40;;;;;;;0.95;0.52;;;9.90;99.90;;;;;;5092895;28;20020;-80
2022/09/19 04:44:09;;;;;;;5.68;0.90;;;9.80;99.90;;;;;;5092887;28;20028;-79
2022/09/19 04:46:35;;;;;;;3.80;3.50;;;9.80;99.90;;;;;;5095218;28;20058;-83
2022/09/19 04:49:04;;;;;;;3.85;1.70;;;10.70;99.90;;;;;;5098579;28;20012;-83
2022/09/19 04:51:30;;;;;;;2.70;1.10;;;10.70;99.90;;;;;;5093937;28;20024;-79
2022/09/19 04:53:57;;;;;;;2.40;0.70;;;10.50;99.90;;;;;;5093029;28;20475;-80
2022/09/19 04:56:23;;;;;;;0.30;0.30;;;10.40;99.90;;;;;;5092713;28;20055;-80
2022/09/19 04:58:48;;;;;;;1.48;0.50;;;10.30;99.90;;;;;;5093249;28;20055;-85
2022/09/19 05:01:14;;;;;;;2.63;0.90;;;10.20;99.90;;;;;;5093941;28;20029;-86
2022/09/19 05:03:43;;;;;;;1.45;0.52;;;10.10;99.90;;;;;;5093856;28;20024;-83
2022/09/19 05:06:10;;;;;;;2.55;1.00;;;10.00;99.90;;;;;;5095325;28;20032;-84
2022/09/19 05:08:37;;;;;;;4.70;1.35;;;9.90;99.90;;;;;;5093682;28;20114;-81
2022/09/19 05:11:05;;;;;;;3.42;1.02;;;9.90;99.90;;;;;;5095013;28;20024;-82
2022/09/19 05:13:33;;;;;;;0.75;0.40;;;9.90;99.90;;;;;;5093534;28;20073;-81
2022/09/19 05:16:00;;;;;;;2.90;1.13;;;9.80;99.90;;;;;;5095034;28;20457;-83
2022/09/19 05:18:27;;;;;;;1.50;0.60;;;9.80;99.90;;;;;;5094563;28;20089;-83
2022/09/19 05:20:54;;;;;;;1.50;1.00;;;9.80;99.90;;;;;;5093420;28;20053;-83
2022/09/19 05:23:24;;;;;;;2.03;1.20;;;9.80;99.90;;;;;;5093650;28;20064;-83
2022/09/19 05:25:54;;;;;;;0.80;0.57;;;9.80;99.90;;;;;;5093289;28;20382;-82
2022/09/19 05:28:26;;;;;;;0.60;0.60;;;9.80;99.90;;;;;;5094186;28;20020;-81
2022/09/19 05:30:54;;;;;;;0.50;0.50;;;9.80;99.90;;;;;;5092995;28;20085;-82
2022/09/19 05:33:26;;;;;;;2.28;0.80;;;9.80;99.90;;;;;;5092835;28;20066;-81
2022/09/19 05:36:00;;;;;;;1.38;0.85;;;9.90;99.90;;;;;;5093298;28;20052;-80
2022/09/19 05:38:26;;;;;;;1.42;0.80;;;9.90;99.90;;;;;;5092451;28;20024;-82
2022/09/19 05:40:54;;;;;;;1.27;0.82;;;10.00;99.90;;;;;;5093568;28;20486;-80
2022/09/19 05:43:20;;;;;;;3.28;0.98;;;10.20;99.90;;;;;;5092149;28;20459;-81
2022/09/19 05:45:46;;;;;;;1.98;0.90;;;10.30;99.90;;;;;;5093341;28;20027;-82
2022/09/19 05:48:14;;;;;;;1.10;0.70;;;10.30;99.90;;;;;;5091797;28;20486;-81
2022/09/19 05:50:43;;;;;;;1.00;0.90;;;10.30;99.90;;;;;;5092278;28;20106;-80
2022/09/19 05:55:55;;;;;;;1.00;0.43;;;10.40;99.90;;;;;;5093370;28;20081;-80
2022/09/19 05:58:21;;;;;;;1.00;0.47;;;10.40;99.90;;;;;;5091834;28;20024;-81
2022/09/19 06:00:47;;;;;;;1.33;0.75;;;10.30;99.90;;;;;;5093086;28;20028;-81
2022/09/19 06:03:17;;;;;;;3.08;0.60;;;10.30;99.90;;;;;;5092942;28;20074;-82
2022/09/19 06:05:48;;;;;;;1.42;1.00;;;10.30;99.90;;;;;;5092955;28;20089;-80
2022/09/19 06:08:16;;;;;;;3.05;0.80;;;10.30;99.90;;;;;;5091600;28;20016;-80
2022/09/19 06:10:44;;;;;;;0.68;0.60;;;10.30;99.90;;;;;;5092866;28;20093;-79
2022/09/19 06:13:23;;;;;;;2.53;0.50;;;10.40;99.90;;;;;;5091319;28;20475;-80
2022/09/19 06:15:49;;;;;;;0.88;0.30;;;10.30;99.90;;;;;;5092882;28;20375;-80
2022/09/19 06:18:15;;;;;;;0.73;0.63;;;10.40;99.90;;;;;;5091495;28;20105;-79
2022/09/19 06:20:42;;;;;;;1.42;0.57;;;10.40;99.90;;;;;;5091678;28;20472;-81
2022/09/19 06:23:10;;;;;;;0.65;0.47;;;10.50;99.90;;;;;;5092928;28;20021;-80
2022/09/19 06:25:38;;;;;;;1.88;0.60;;;10.60;99.90;;;;;;5095840;28;20032;-80
2022/09/19 06:28:07;;;;;;;4.60;0.85;;;10.70;99.90;;;;;;5096953;28;20019;-80
2022/09/19 06:30:33;;;;;;;5.10;0.50;;;11.10;99.90;;;;;;5094975;28;20403;-79
2022/09/19 06:33:00;;;;;;;2.00;0.50;;;10.90;99.90;;;;;;5095272;28;20039;-79
2022/09/19 06:35:28;;;;;;;1.00;0.60;;;11.00;99.90;;;;;;5095178;28;20073;-80
2022/09/19 06:37:59;;;;;;;3.60;1.00;;;11.10;99.90;;;;;;5095524;28;20048;-81
2022/09/19 06:40:24;;;;;;;0.32;0.20;;;11.30;99.90;;;;;;5094940;28;20568;-80
2022/09/19 06:42:58;;;;;;;2.15;0.55;;;11.50;99.90;;;;;;5095522;28;20051;-80
2022/09/19 06:45:23;;;;;;;2.28;0.57;;;11.60;99.90;;;;;;5095890;28;20043;-81
2022/09/19 06:47:49;;;;;;;1.77;0.50;;;11.80;99.90;;;;;;5096187;28;20024;-80
2022/09/19 06:50:16;;;;;;;1.00;0.93;;;12.00;99.90;;;;;;5096215;28;20024;-79
2022/09/19 06:52:46;;;;;;;0.85;0.30;;;12.20;98.90;;;;;;5096503;28;20020;-79
2022/09/19 06:55:11;;;;;;;4.90;0.60;;;12.40;97.90;;;;;;5096034;28;20012;-78
2022/09/19 06:57:37;;;;;;;1.30;0.47;;;12.50;97.20;;;;;;5077572;28;20522;-80
2022/09/19 07:00:03;;;;;;;0.73;0.50;;;12.60;96.40;;;;;;5096078;28;20036;-79
2022/09/19 07:02:29;;;;;;;1.88;0.35;;;12.80;94.90;;;;;;5077715;28;20016;-81
2022/09/19 07:04:54;;;;;;;0.35;0.17;;;12.90;93.20;;;;;;5077799;28;20036;-80
2022/09/19 07:07:20;;;;;;;1.17;0.35;;;13.00;92.90;;;;;;5077743;28;20051;-80
2022/09/19 07:09:45;;;;;;;0.22;0.22;;;13.00;92.60;;;;;;5077534;28;20024;-78
2022/09/19 07:12:11;;;;;;;0.25;0.20;;;13.10;92.80;;;;;;5095465;28;20016;-80
2022/09/19 07:14:37;;;;;;;0.55;0.10;;;13.10;92.60;;;;;;5077150;28;20035;-80
2022/09/19 07:17:04;;;;;;;0.55;0.38;;;13.30;91.70;;;;;;5077671;28;20380;-79
2022/09/19 07:19:29;;;;;;;0.10;0.10;;;13.30;90.30;;;;;;5076323;28;20040;-80
2022/09/19 07:21:55;;;;;;;0.30;0.30;;;13.40;89.30;;;;;;5095545;28;20020;-80
2022/09/19 07:24:20;;;;;;;0.10;0.10;;;13.50;93.40;;;;;;5077437;28;20456;-79
2022/09/19 07:26:46;;;;;;;0.08;0.08;;;13.60;92.30;;;;;;5095370;28;20435;-80
2022/09/19 07:29:12;;;;;;;1.38;0.20;;;13.70;90.20;;;;;;5094759;28;20387;-79
2022/09/19 07:31:37;;;;;;;1.77;0.03;;;13.80;86.50;;;;;;5077111;28;20020;-79
2022/09/19 07:34:03;;;;;;;0.10;0.10;;;13.80;83.30;;;;;;5076879;28;20055;-79
2022/09/19 07:36:29;;;;;;;0.57;0.17;;;13.90;82.80;;;;;;5076565;28;20413;-80
2022/09/19 07:38:54;;;;;;;0.85;0.20;;;14.00;80.80;;;;;;5095096;28;20547;-81
2022/09/19 07:41:20;;;;;;;4.55;0.17;;;14.10;77.20;;;;;;5076704;28;20023;-80
2022/09/19 07:43:48;;;;;;;0.10;0.10;;;14.20;73.30;;;;;;5094862;28;20034;-81
2022/09/19 07:46:15;;;;;;;0.00;0.00;;;14.30;70.40;;;;;;5076889;28;20035;-80
2022/09/19 07:48:42;;;;;;;0.10;0.00;;;14.40;68.60;;;;;;5076647;28;20077;-80
2022/09/19 07:51:08;;;;;;;5.35;0.52;;;14.40;66.60;;;;;;5076599;28;20028;-80
2022/09/19 07:53:34;;;;;;;8.00;1.08;;;14.50;65.60;;;;;;5076864;28;20020;-80
2022/09/19 07:56:01;;;;;;;1.17;0.00;;;14.60;65.40;;;;;;5094514;28;20062;-80
2022/09/19 07:58:27;;;;;;;0.10;0.10;;;14.70;62.50;;;;;;5076236;28;20016;-79
2022/09/19 08:00:54;;;;;;;0.10;0.10;;;14.80;62.20;;;;;;5076336;28;20127;-81
2022/09/19 08:03:20;;;;;;;0.05;0.03;;;14.80;62.00;;;;;;5076381;28;20020;-79
2022/09/19 08:05:49;;;;;;;0.13;0.00;;;14.90;62.70;;;;;;5076586;28;20070;-80
2022/09/19 08:08:17;;;;;;;0.00;0.00;;;15.10;62.20;;;;;;5094669;28;20452;-79
2022/09/19 08:10:43;;;;;;;0.10;0.10;;;15.30;63.10;;;;;;5094690;28;20409;-79
2022/09/19 08:13:10;;;;;;;0.10;0.10;;;15.60;67.10;;;;;;5076427;28;20085;-79
2022/09/19 08:15:37;;;;;;;0.00;0.00;;;15.70;72.20;;;;;;5076174;28;20016;-78
2022/09/19 08:18:11;;;;;;;0.00;0.00;;;15.60;62.30;;;;;;5075802;28;20023;-79
2022/09/19 08:20:37;;;;;;;0.00;0.00;;;15.80;61.00;;;;;;5076008;28;20083;-79
2022/09/19 08:23:05;;;;;;;0.80;0.10;;;15.90;61.50;;;;;;5094038;28;20028;-78
2022/09/19 08:25:33;;;;;;;0.75;0.47;;;16.00;61.10;;;;;;5094066;28;20028;-79
2022/09/19 08:27:59;;;;;;;10.00;0.77;;;15.90;61.00;;;;;;5093861;28;20115;-79
2022/09/19 08:30:29;;;;;;;0.30;0.22;;;16.00;62.20;;;;;;5075896;28;20154;-80
2022/09/19 08:32:56;;;;;;;2.42;0.10;;;15.90;60.30;;;;;;5075820;28;20076;-79
2022/09/19 08:35:23;;;;;;;0.00;0.00;;;15.80;59.20;;;;;;5094082;28;20117;-80
2022/09/19 08:38:00;;;;;;;0.20;0.15;;;15.60;59.50;;;;;;5075747;28;20030;-80
2022/09/19 08:40:27;;;;;;;9.07;0.80;;;15.50;60.60;;;;;;5093947;28;20031;-79
2022/09/19 08:42:58;;;;;;;4.55;0.10;;;15.40;60.40;;;;;;5093683;28;20371;-79
2022/09/19 08:45:32;;;;;;;0.00;0.00;;;15.40;61.10;;;;;;5075364;28;20051;-79
2022/09/19 08:48:01;;;;;;;0.10;0.10;;;15.50;61.30;;;;;;5074932;28;20020;-80
2022/09/19 08:50:31;;;;;;;2.88;0.08;;;15.50;60.90;;;;;;5075307;28;20031;-79
2022/09/19 08:53:00;;;;;;;3.13;0.17;;;15.60;60.70;;;;;;5093479;28;20103;-78
2022/09/19 08:55:30;;;;;;;0.00;0.00;;;15.60;61.50;;;;;;5093609;28;20471;-78
2022/09/19 08:57:59;;;;;;;0.00;0.00;;;15.60;60.80;;;;;;5075411;28;20032;-78
2022/09/19 09:00:27;;;;;;;0.00;0.00;;;15.70;62.30;;;;;;5075225;28;20020;-80
2022/09/19 09:03:03;;;;;;;0.10;0.00;;;15.80;60.20;;;;;;5075632;28;20016;-78
2022/09/19 09:05:55;;;;;;;0.45;0.22;;;15.90;60.10;;;;;;5075054;28;20063;-79
2022/09/19 09:08:55;;;;;;;0.00;0.00;;;15.90;61.80;;;;;;5075011;28;20028;-79
2022/09/19 09:11:23;;;;;;;0.20;0.00;;;16.10;59.70;;;;;;5075258;28;20107;-80
2022/09/19 09:14:01;;;;;;;0.03;0.00;;;15.90;60.20;;;;;;5074854;28;20030;-79
2022/09/19 09:16:44;;;;;;;0.00;0.00;;;16.00;60.30;;;;;;5093166;28;20104;-78
2022/09/19 09:19:29;;;;;;;1.67;0.10;;;16.00;59.70;;;;;;5074771;28;20048;-80
2022/09/19 09:22:11;;;;;;;0.35;0.10;;;16.10;59.40;;;;;;5093089;28;20024;-80
2022/09/19 09:24:40;;;;;;;0.05;0.05;;;16.30;60.00;;;;;;5074632;28;20090;-79
2022/09/19 09:27:25;;;;;;;0.00;0.00;;;16.40;59.90;;;;;;5093123;28;20023;-79
2022/09/19 09:29:58;;;;;;;3.42;0.50;;;16.50;57.30;;;;;;5074838;28;20027;-79
2022/09/19 09:32:33;;;;;;;0.00;0.00;;;16.40;58.50;;;;;;5074909;28;20038;-78
2022/09/19 09:35:02;;;;;;;;;;;16.50;58.20;;;;;;5075115;28;20474;-79
2022/09/19 09:38:01;;;;;;;0.17;0.00;;;16.50;58.20;;;;;;5074601;28;20322;-80
2022/09/19 09:44:06;;;;;;;0.00;0.00;;;16.50;58.60;;;;;;5093127;28;20372;-79
2022/09/19 09:46:43;;;;;;;7.38;0.30;;;16.50;58.30;;;;;;5074666;28;20032;-79
2022/09/19 09:49:12;;;;;;;0.03;0.03;;;16.50;57.80;;;;;;5092464;28;20406;-78
2022/09/19 09:51:59;;;;;;;0.40;0.00;;;16.60;59.20;;;;;;5092771;28;20024;-78
2022/09/19 09:57:47;;;;;;;0.22;0.00;;;16.60;58.10;;;;;;5092526;28;20050;-80
2022/09/19 10:05:59;;;;;;;0.00;0.00;;;16.60;58.70;;;;;;5092518;28;20177;-79
2022/09/19 10:08:42;;;;;;;0.10;0.10;;;16.40;57.60;;;;;;5073852;28;20498;-80
2022/09/19 10:11:17;;;;;;;0.05;0.00;;;16.40;59.20;;;;;;5074225;28;20066;-80
2022/09/19 10:13:57;;;;;;;;;;;16.30;59.60;;;;;;5074524;28;20020;-79
2022/09/19 10:16:24;;;;;;;0.17;0.10;;;16.40;60.50;;;;;;5074311;28;19911;-79
2022/09/19 10:19:00;;;;;;;0.32;0.17;;;16.50;59.50;;;;;;5073934;28;20135;-78
2022/09/19 10:21:26;;;;;;;0.28;0.05;;;16.40;59.20;;;;;;5057474;28;20020;-77
2022/09/19 10:23:52;;;;;;;0.15;0.15;;;16.40;59.20;;;;;;5091183;28;20487;-75
2022/09/19 10:26:30;;;;;;;0.50;0.03;;;16.60;65.60;;;;;;5092085;28;20466;-77
2022/09/19 10:29:00;;;;;;;0.25;0.10;;;16.50;61.70;;;;;;5091945;28;20443;-76
2022/09/19 10:31:38;;;;;;;1.40;0.00;;;16.50;61.00;;;;;;5073626;28;20027;-78
2022/09/19 10:34:24;;;;;;;0.10;0.10;;;16.40;59.20;;;;;;5091523;28;20019;-76
2022/09/19 10:36:49;;;;;;;0.15;0.00;;;16.20;59.40;;;;;;5091885;28;20052;-76
2022/09/19 10:39:17;;;;;;;0.57;0.00;;;16.20;60.10;;;;;;5091540;28;20136;-77
2022/09/19 10:41:43;;;;;;;0.08;0.08;;;16.20;60.50;;;;;;5091786;28;20332;-77
2022/09/19 10:44:25;;;;;;;0.15;0.15;;;16.30;60.90;;;;;;5092062;28;20027;-77
2022/09/19 10:47:03;;;;;;;0.00;0.00;;;16.20;60.30;;;;;;5074268;28;20054;-78
2022/09/19 10:49:36;;;;;;;5.10;0.10;;;16.10;60.30;;;;;;5091934;28;20020;-77
2022/09/19 10:52:03;;;;;;;0.30;0.10;;;16.10;59.70;;;;;;5092034;28;20095;-77
2022/09/19 10:54:40;;;;;;;0.00;0.00;;;16.10;60.90;;;;;;5073843;28;20162;-75
2022/09/19 10:57:36;;;;;;;1.20;0.10;;;16.10;60.10;;;;;;5091898;28;20020;-76
2022/09/19 11:00:04;;;;;;;3.88;0.17;;;16.20;61.60;;;;;;5073651;28;20036;-77
2022/09/19 11:02:30;;;;;;;0.70;0.10;;;16.20;60.70;;;;;;5091791;28;20116;-77
2022/09/19 11:05:03;;;;;;;0.85;0.00;;;16.20;61.30;;;;;;5091275;28;20107;-77
2022/09/19 11:07:44;;;;;;;0.00;0.00;;;16.20;60.50;;;;;;5091054;28;20112;-75
2022/09/19 11:10:40;;;;;;;0.00;0.00;;;16.30;60.30;;;;;;5074165;28;20023;-75
2022/09/19 11:13:11;;;;;;;;;;;16.40;59.20;;;;;;5096094;28;20047;-76
2022/09/19 11:15:49;;;;;;;0.10;0.00;;;16.50;59.60;;;;;;5076850;28;19904;-78
2022/09/19 11:18:33;;;;;;;0.00;0.00;;;16.60;60.00;;;;;;5076699;28;20065;-76
2022/09/19 11:21:12;;;;;;;1.02;0.30;;;16.80;59.00;;;;;;5076598;28;20058;-76
2022/09/19 11:23:50;;;;;;;0.00;0.00;;;16.90;60.60;;;;;;5076705;28;20054;-76
2022/09/19 11:26:18;;;;;;;0.00;0.00;;;17.00;57.80;;;;;;5095348;28;20062;-76
2022/09/19 11:29:13;;;;;;;1.85;0.00;;;17.00;57.60;;;;;;5095180;28;20027;-75
2022/09/19 11:32:03;;;;;;;0.47;0.00;;;17.10;58.70;;;;;;5095183;28;20429;-77
2022/09/19 11:35:09;;;;;;;0.00;0.00;;;17.00;56.80;;;;;;5076871;28;20035;-77
2022/09/19 11:37:55;;;;;;;0.00;0.00;;;17.00;56.90;;;;;;5094933;28;20047;-75
2022/09/19 11:40:41;;;;;;;0.00;0.00;;;17.10;57.30;;;;;;5076570;28;20341;-77
2022/09/19 11:43:12;;;;;;;0.70;0.10;;;17.00;57.10;;;;;;5094940;28;20028;-74
2022/09/19 11:46:17;;;;;;;0.00;0.00;;;17.00;57.90;;;;;;5094994;28;20566;-76
2022/09/19 11:49:09;;;;;;;2.72;0.00;;;17.10;57.70;;;;;;5094817;28;20114;-77
2022/09/19 11:51:56;;;;;;;0.25;0.10;;;17.40;59.60;;;;;;5094783;28;20025;-78
2022/09/19 11:54:44;;;;;;;0.30;0.00;;;17.50;56.90;;;;;;5094144;28;20035;-76
2022/09/19 11:57:30;;;;;;;0.00;0.00;;;17.40;55.90;;;;;;5076404;28;20023;-77
2022/09/19 12:00:08;;;;;;;0.00;0.00;;;17.50;56.50;;;;;;5094238;28;20035;-77
2022/09/19 12:02:43;;;;;;;0.00;0.00;;;17.60;56.60;;;;;;5094554;28;20035;-78
2022/09/19 12:05:32;;;;;;;0.33;0.10;;;17.60;56.10;;;;;;5094279;28;20161;-78
2022/09/19 12:08:15;;;;;;;0.00;0.00;;;17.60;56.80;;;;;;5051994;28;20028;-78
2022/09/19 12:10:55;;;;;;;0.20;0.10;;;17.30;57.30;;;;;;5093779;28;20036;-78
2022/09/19 12:13:46;;;;;;;0.00;0.00;;;17.20;56.60;;;;;;5075954;28;20024;-76
2022/09/19 12:16:37;;;;;;;0.00;0.00;;;17.10;56.90;;;;;;5071264;28;20032;-77
2022/09/19 12:19:10;;;;;;;0.00;0.00;;;17.10;58.50;;;;;;5084362;28;20072;-79
2022/09/19 12:22:03;;;;;;;3.65;0.13;;;17.20;58.30;;;;;;5093266;28;20463;-77
2022/09/19 12:24:53;;;;;;;0.00;0.00;;;17.40;57.90;;;;;;5093740;28;20038;-77
2022/09/19 12:27:34;;;;;;;0.00;0.00;;;17.40;56.50;;;;;;5094216;28;20066;-77
2022/09/19 12:30:14;;;;;;;0.00;0.00;;;17.40;57.00;;;;;;5093773;28;20047;-77
2022/09/19 12:32:56;;;;;;;4.18;0.13;;;17.20;58.00;;;;;;5093531;28;20148;-78
2022/09/19 12:35:46;;;;;;;1.75;0.00;;;17.10;58.50;;;;;;5093491;28;20020;-78
2022/09/19 12:38:24;;;;;;;0.00;0.00;;;17.00;57.60;;;;;;5093351;28;20055;-77
2022/09/19 12:41:11;;;;;;;0.28;0.00;;;17.10;57.60;;;;;;5093530;28;20020;-78
2022/09/19 12:43:55;;;;;;;0.08;0.00;;;17.10;58.90;;;;;;5093308;28;20028;-78
2022/09/19 12:46:40;;;;;;;0.22;0.00;;;17.10;59.50;;;;;;5093245;28;20081;-79
2022/09/19 12:49:23;;;;;;;2.63;0.10;;;17.20;58.00;;;;;;5092969;28;20085;-77
2022/09/19 12:52:18;;;;;;;1.17;0.17;;;17.20;57.70;;;;;;5093789;28;20024;-78
2022/09/19 12:54:58;;;;;;;0.00;0.00;;;17.30;56.60;;;;;;5075692;28;20040;-75
2022/09/19 12:57:28;;;;;;;0.00;0.00;;;17.40;58.00;;;;;;5093553;28;20460;-77
2022/09/19 12:59:54;;;;;;;0.00;0.00;;;17.50;56.80;;;;;;5092983;28;20032;-75
2022/09/19 13:02:23;;;;;;;2.88;0.32;;;17.60;57.60;;;;;;5093087;28;20024;-78
2022/09/19 13:04:58;;;;;;;0.00;0.00;;;17.60;58.50;;;;;;5093073;28;20032;-76
2022/09/19 13:07:40;;;;;;;2.20;0.08;;;17.60;57.70;;;;;;5075022;28;20375;-78
2022/09/19 13:10:21;;;;;;;0.00;0.00;;;17.60;57.90;;;;;;5075230;28;20032;-77
2022/09/19 13:12:57;;;;;;;0.10;0.00;;;17.60;57.50;;;;;;5075095;28;20024;-79
2022/09/19 13:15:37;;;;;;;0.00;0.00;;;17.60;57.80;;;;;;5093406;28;20024;-78
2022/09/19 13:23:36;;;;;;;13.15;0.40;;;17.40;57.70;;;;;;5093184;28;20039;-77
2022/09/19 13:26:17;;;;;;;0.20;0.20;;;17.40;57.70;;;;;;5093148;28;20032;-78
2022/09/19 13:28:54;;;;;;;1.80;0.10;;;17.40;57.50;;;;;;5093223;28;20048;-77
2022/09/19 13:31:31;;;;;;;0.38;0.10;;;17.40;57.50;;;;;;5092992;28;20028;-78
2022/09/19 13:33:59;;;;;;;0.00;0.00;;;17.50;57.20;;;;;;5092611;28;20031;-76
2022/09/19 13:36:26;;;;;;;0.00;0.00;;;17.60;56.60;;;;;;5093097;28;20435;-75
2022/09/19 13:38:58;;;;;;;0.00;0.00;;;17.50;56.50;;;;;;5092862;28;20024;-76
2022/09/19 13:42:04;;;;;;;0.00;0.00;;;17.40;56.80;;;;;;5092804;28;20081;-76